createdAt,value
2017-05-03T00:00:00.770Z,19.32
2017-05-03T00:01:13.562Z,19.32
2017-05-03T00:02:26.661Z,19.45
2017-05-03T00:03:39.463Z,19.47
2017-05-03T00:04:52.259Z,19.4
2017-05-03T00:06:05.059Z,19.38
2017-05-03T00:07:17.850Z,19.39
2017-05-03T00:08:30.649Z,19.4
2017-05-03T00:09:43.445Z,19.34
2017-05-03T00:10:56.255Z,19.4
2017-05-03T00:12:08.575Z,19.43
2017-05-03T00:13:21.389Z,19.45
2017-05-03T00:14:33.707Z,19.47
2017-05-03T00:15:46.504Z,19.35
2017-05-03T00:16:59.306Z,19.38
2017-05-03T00:18:12.358Z,19.31
2017-05-03T00:19:24.690Z,19.39
2017-05-03T00:20:37.005Z,19.32
2017-05-03T00:21:49.801Z,19.35
2017-05-03T00:23:02.604Z,19.3
2017-05-03T00:24:14.921Z,19.38
2017-05-03T00:25:27.726Z,19.35
2017-05-03T00:26:40.519Z,19.32
2017-05-03T00:27:53.327Z,19.35
2017-05-03T00:29:05.165Z,19.32
2017-05-03T00:30:17.974Z,19.32
2017-05-03T00:31:30.773Z,19.31
2017-05-03T00:32:43.579Z,19.35
2017-05-03T00:33:56.385Z,19.32
2017-05-03T00:35:09.443Z,19.35
2017-05-03T00:36:21.760Z,19.35
2017-05-03T00:37:34.077Z,19.32
2017-05-03T00:38:46.878Z,19.3
2017-05-03T00:39:59.677Z,19.27
2017-05-03T00:41:11.994Z,19.31
2017-05-03T00:42:24.799Z,19.3
2017-05-03T00:43:37.115Z,19.32
2017-05-03T00:44:49.936Z,19.24
2017-05-03T00:46:02.254Z,19.27
2017-05-03T00:47:14.566Z,19.23
2017-05-03T00:48:26.895Z,19.16
2017-05-03T00:49:39.222Z,19.15
2017-05-03T00:50:52.276Z,19.17
2017-05-03T00:52:05.071Z,19.2
2017-05-03T00:53:17.391Z,19.21
2017-05-03T00:54:30.204Z,19.24
2017-05-03T00:55:42.515Z,19.17
2017-05-03T00:56:55.563Z,19.15
2017-05-03T00:58:07.881Z,19.21
2017-05-03T00:59:20.207Z,19.1
2017-05-03T01:00:33.010Z,19.1
2017-05-03T01:01:45.810Z,19.12
2017-05-03T01:02:58.607Z,19.01
2017-05-03T01:04:10.438Z,18.96
2017-05-03T01:05:23.248Z,18.94
2017-05-03T01:06:36.043Z,18.9
2017-05-03T01:07:49.143Z,18.94
2017-05-03T01:09:01.944Z,18.97
2017-05-03T01:10:14.268Z,18.94
2017-05-03T01:11:27.062Z,18.94
2017-05-03T01:12:39.382Z,18.93
2017-05-03T01:13:52.186Z,18.96
2017-05-03T01:15:04.999Z,18.96
2017-05-03T01:16:17.805Z,18.97
2017-05-03T01:17:30.613Z,18.93
2017-05-03T01:18:43.414Z,18.94
2017-05-03T01:19:56.219Z,19.07
2017-05-03T01:21:08.534Z,19.12
2017-05-03T01:22:21.328Z,19.01
2017-05-03T01:23:34.387Z,19.01
2017-05-03T01:24:47.193Z,18.99
2017-05-03T01:25:59.998Z,18.97
2017-05-03T01:27:12.791Z,18.99
2017-05-03T01:28:25.110Z,19.02
2017-05-03T01:29:37.913Z,18.96
2017-05-03T01:30:50.710Z,18.9
2017-05-03T01:32:03.505Z,18.89
2017-05-03T01:33:16.307Z,18.87
2017-05-03T01:34:29.122Z,18.91
2017-05-03T01:35:41.927Z,18.91
2017-05-03T01:36:54.770Z,18.93
2017-05-03T01:38:07.566Z,18.83
2017-05-03T01:39:20.363Z,18.86
2017-05-03T01:40:33.164Z,18.93
2017-05-03T01:41:45.960Z,18.89
2017-05-03T01:42:58.761Z,18.93
2017-05-03T01:44:10.115Z,18.83
2017-05-03T01:45:23.236Z,18.79
2017-05-03T01:46:35.554Z,18.75
2017-05-03T01:47:48.349Z,18.75
2017-05-03T01:49:01.155Z,18.75
2017-05-03T01:50:13.477Z,18.78
2017-05-03T01:51:25.802Z,18.68
2017-05-03T01:52:38.622Z,18.74
2017-05-03T01:53:51.423Z,18.76
2017-05-03T01:55:04.225Z,18.78
2017-05-03T01:56:17.052Z,18.68
2017-05-03T01:57:29.848Z,18.78
2017-05-03T01:58:42.645Z,18.78
2017-05-03T01:59:55.440Z,18.79
2017-05-03T02:01:07.761Z,18.76
2017-05-03T02:02:20.820Z,18.78
2017-05-03T02:03:33.625Z,18.78
2017-05-03T02:04:46.432Z,18.78
2017-05-03T02:05:59.238Z,18.78
2017-05-03T02:07:12.037Z,18.72
2017-05-03T02:08:24.352Z,18.68
2017-05-03T02:09:36.191Z,18.69
2017-05-03T02:10:48.510Z,18.74
2017-05-03T02:12:00.833Z,18.68
2017-05-03T02:13:13.154Z,18.65
2017-05-03T02:14:25.965Z,18.68
2017-05-03T02:15:38.765Z,18.66
2017-05-03T02:16:51.570Z,18.66
2017-05-03T02:18:04.382Z,18.74
2017-05-03T02:19:16.713Z,18.68
2017-05-03T02:20:29.031Z,18.65
2017-05-03T02:21:41.827Z,18.75
2017-05-03T02:22:54.630Z,18.78
2017-05-03T02:24:21.505Z,18.78
2017-05-03T02:25:34.306Z,18.75
2017-05-03T02:26:47.110Z,18.79
2017-05-03T02:27:59.434Z,18.79
2017-05-03T02:29:12.231Z,18.79
2017-05-03T02:30:25.032Z,18.76
2017-05-03T02:31:37.344Z,18.72
2017-05-03T02:32:49.667Z,18.66
2017-05-03T02:34:01.996Z,18.62
2017-05-03T02:35:14.561Z,18.6
2017-05-03T02:36:27.367Z,18.65
2017-05-03T02:37:40.169Z,18.53
2017-05-03T02:38:52.998Z,18.56
2017-05-03T02:40:19.867Z,18.59
2017-05-03T02:41:32.663Z,18.54
2017-05-03T02:42:44.988Z,18.47
2017-05-03T02:43:57.805Z,18.59
2017-05-03T02:45:10.373Z,18.59
2017-05-03T02:46:23.162Z,18.56
2017-05-03T02:47:35.468Z,18.5
2017-05-03T02:48:48.265Z,18.57
2017-05-03T02:50:01.070Z,18.53
2017-05-03T02:51:13.382Z,18.51
2017-05-03T02:52:26.193Z,18.56
2017-05-03T02:53:38.994Z,18.53
2017-05-03T02:54:51.803Z,18.57
2017-05-03T02:56:04.607Z,18.51
2017-05-03T02:57:16.436Z,18.46
2017-05-03T02:58:29.239Z,18.42
2017-05-03T02:59:42.040Z,18.46
2017-05-03T03:00:54.827Z,18.42
2017-05-03T03:02:07.135Z,18.38
2017-05-03T03:03:19.932Z,18.47
2017-05-03T03:04:32.729Z,18.39
2017-05-03T03:05:45.523Z,18.39
2017-05-03T03:06:58.568Z,18.38
2017-05-03T03:08:11.367Z,18.38
2017-05-03T03:09:24.171Z,18.25
2017-05-03T03:10:36.969Z,18.31
2017-05-03T03:11:49.769Z,18.38
2017-05-03T03:13:02.386Z,18.34
2017-05-03T03:14:14.708Z,18.41
2017-05-03T03:15:27.507Z,18.32
2017-05-03T03:16:40.298Z,18.36
2017-05-03T03:17:52.607Z,18.35
2017-05-03T03:19:05.400Z,18.36
2017-05-03T03:20:17.719Z,18.34
2017-05-03T03:21:30.511Z,18.39
2017-05-03T03:22:42.821Z,18.36
2017-05-03T03:23:55.382Z,18.34
2017-05-03T03:25:08.181Z,18.29
2017-05-03T03:26:20.013Z,18.26
2017-05-03T03:27:32.804Z,18.36
2017-05-03T03:28:45.600Z,18.25
2017-05-03T03:29:58.402Z,18.39
2017-05-03T03:31:11.192Z,18.39
2017-05-03T03:32:23.983Z,18.35
2017-05-03T03:33:36.780Z,18.26
2017-05-03T03:34:49.576Z,18.36
2017-05-03T03:36:02.381Z,18.41
2017-05-03T03:37:14.696Z,18.36
2017-05-03T03:38:27.488Z,18.32
2017-05-03T03:39:40.585Z,18.38
2017-05-03T03:40:52.414Z,18.36
2017-05-03T03:42:05.214Z,18.36
2017-05-03T03:43:17.040Z,18.35
2017-05-03T03:44:29.837Z,18.36
2017-05-03T03:45:42.449Z,18.38
2017-05-03T03:46:55.237Z,18.34
2017-05-03T03:48:07.546Z,18.31
2017-05-03T03:49:20.333Z,18.23
2017-05-03T03:50:33.133Z,18.25
2017-05-03T03:51:45.930Z,18.31
2017-05-03T03:52:58.731Z,18.38
2017-05-03T03:54:11.049Z,18.39
2017-05-03T03:55:23.364Z,18.25
2017-05-03T03:56:36.461Z,18.36
2017-05-03T03:57:48.780Z,18.32
2017-05-03T03:59:01.573Z,18.34
2017-05-03T04:00:13.880Z,18.38
2017-05-03T04:01:26.978Z,18.34
2017-05-03T04:02:39.773Z,18.36
2017-05-03T04:03:52.095Z,18.34
2017-05-03T04:05:04.405Z,18.38
2017-05-03T04:06:16.230Z,18.35
2017-05-03T04:07:29.030Z,18.32
2017-05-03T04:08:41.826Z,18.19
2017-05-03T04:09:54.627Z,18.19
2017-05-03T04:11:07.427Z,18.23
2017-05-03T04:12:19.504Z,18.25
2017-05-03T04:13:32.301Z,18.31
2017-05-03T04:14:45.129Z,18.34
2017-05-03T04:15:57.443Z,18.36
2017-05-03T04:17:10.239Z,18.2
2017-05-03T04:18:23.286Z,18.21
2017-05-03T04:19:36.073Z,18.2
2017-05-03T04:20:48.857Z,18.23
2017-05-03T04:22:01.651Z,18.19
2017-05-03T04:23:14.445Z,18.23
2017-05-03T04:24:27.233Z,18.25
2017-05-03T04:25:39.537Z,18.25
2017-05-03T04:26:52.324Z,18.25
2017-05-03T04:28:05.112Z,18.26
2017-05-03T04:29:17.419Z,18.2
2017-05-03T04:30:30.204Z,18.2
2017-05-03T04:31:42.517Z,18.2
2017-05-03T04:32:55.310Z,18.19
2017-05-03T04:34:07.910Z,18.2
2017-05-03T04:35:20.213Z,18.21
2017-05-03T04:36:32.995Z,18.11
2017-05-03T04:37:45.797Z,18.1
2017-05-03T04:38:58.109Z,18.14
2017-05-03T04:40:11.190Z,18.09
2017-05-03T04:41:23.973Z,18.14
2017-05-03T04:42:36.758Z,18.09
2017-05-03T04:43:49.544Z,18.04
2017-05-03T04:45:01.843Z,18.11
2017-05-03T04:46:14.143Z,18.09
2017-05-03T04:47:26.944Z,18.09
2017-05-03T04:48:39.729Z,18.11
2017-05-03T04:49:52.526Z,18.13
2017-05-03T04:51:05.313Z,18.07
2017-05-03T04:52:17.142Z,18.17
2017-05-03T04:53:29.941Z,18.14
2017-05-03T04:54:42.730Z,18.2
2017-05-03T04:55:55.035Z,18.21
2017-05-03T04:57:07.833Z,18.14
2017-05-03T04:58:20.148Z,18.07
2017-05-03T04:59:32.955Z,17.99
2017-05-03T05:00:45.746Z,17.91
2017-05-03T05:01:58.057Z,17.87
2017-05-03T05:03:10.372Z,17.92
2017-05-03T05:04:23.170Z,17.84
2017-05-03T05:05:35.963Z,17.86
2017-05-03T05:06:48.797Z,17.92
2017-05-03T05:08:01.589Z,17.86
2017-05-03T05:09:12.938Z,17.8
2017-05-03T05:10:25.730Z,17.73
2017-05-03T05:11:38.521Z,17.87
2017-05-03T05:12:50.348Z,17.84
2017-05-03T05:14:03.148Z,17.86
2017-05-03T05:15:15.953Z,17.84
2017-05-03T05:16:28.257Z,17.84
2017-05-03T05:17:40.821Z,17.94
2017-05-03T05:18:53.658Z,17.83
2017-05-03T05:20:05.485Z,17.87
2017-05-03T05:21:17.316Z,17.94
2017-05-03T05:22:30.100Z,17.94
2017-05-03T05:23:56.970Z,17.92
2017-05-03T05:25:09.777Z,17.96
2017-05-03T05:26:22.567Z,17.95
2017-05-03T05:27:35.358Z,18.04
2017-05-03T05:28:47.674Z,18.02
2017-05-03T05:29:59.995Z,18.02
2017-05-03T05:31:12.794Z,18.02
2017-05-03T05:32:25.101Z,17.92
2017-05-03T05:33:37.413Z,17.95
2017-05-03T05:34:50.211Z,17.84
2017-05-03T05:36:01.561Z,17.89
2017-05-03T05:37:14.351Z,17.91
2017-05-03T05:38:27.147Z,17.89
2017-05-03T05:39:39.940Z,17.99
2017-05-03T05:40:52.734Z,18.01
2017-05-03T05:42:05.516Z,17.99
2017-05-03T05:43:17.344Z,17.95
2017-05-03T05:44:30.147Z,17.94
2017-05-03T05:45:42.943Z,17.94
2017-05-03T05:46:55.734Z,17.99
2017-05-03T05:48:08.037Z,17.99
2017-05-03T05:49:20.834Z,17.86
2017-05-03T05:50:33.147Z,17.91
2017-05-03T05:51:45.932Z,18.01
2017-05-03T05:52:58.722Z,17.95
2017-05-03T05:54:11.515Z,17.89
2017-05-03T05:55:23.826Z,17.84
2017-05-03T05:56:36.140Z,17.95
2017-05-03T05:57:48.932Z,17.87
2017-05-03T05:59:01.731Z,17.87
2017-05-03T06:00:14.049Z,17.94
2017-05-03T06:01:26.406Z,17.92
2017-05-03T06:02:39.199Z,17.87
2017-05-03T06:03:51.995Z,17.89
2017-05-03T06:05:04.792Z,17.84
2017-05-03T06:06:16.916Z,17.87
2017-05-03T06:07:29.708Z,17.87
2017-05-03T06:08:42.500Z,17.84
2017-05-03T06:09:55.301Z,17.87
2017-05-03T06:11:08.103Z,17.96
2017-05-03T06:12:20.231Z,17.91
2017-05-03T06:13:33.037Z,17.98
2017-05-03T06:14:45.834Z,17.96
2017-05-03T06:15:58.626Z,17.99
2017-05-03T06:17:11.726Z,17.99
2017-05-03T06:18:24.520Z,17.99
2017-05-03T06:19:37.314Z,17.99
2017-05-03T06:20:50.108Z,17.98
2017-05-03T06:22:02.904Z,18.02
2017-05-03T06:23:29.772Z,17.94
2017-05-03T06:24:42.079Z,17.92
2017-05-03T06:25:54.868Z,17.84
2017-05-03T06:27:06.694Z,17.91
2017-05-03T06:28:19.489Z,17.86
2017-05-03T06:29:31.811Z,17.77
2017-05-03T06:30:44.606Z,17.62
2017-05-03T06:31:57.398Z,17.7
2017-05-03T06:33:10.019Z,17.63
2017-05-03T06:34:22.806Z,17.63
2017-05-03T06:35:34.635Z,17.51
2017-05-03T06:36:47.429Z,17.65
2017-05-03T06:38:00.226Z,17.62
2017-05-03T06:39:13.264Z,17.63
2017-05-03T06:40:26.061Z,17.66
2017-05-03T06:41:38.403Z,17.57
2017-05-03T06:42:49.750Z,17.62
2017-05-03T06:44:02.550Z,17.68
2017-05-03T06:45:15.342Z,17.66
2017-05-03T06:46:27.658Z,17.62
2017-05-03T06:47:39.970Z,17.58
2017-05-03T06:48:52.775Z,17.54
2017-05-03T06:50:04.615Z,17.53
2017-05-03T06:51:17.410Z,17.45
2017-05-03T06:52:30.195Z,17.45
2017-05-03T06:53:42.491Z,17.43
2017-05-03T06:54:55.280Z,17.3
2017-05-03T06:56:08.066Z,17.38
2017-05-03T06:57:20.373Z,17.46
2017-05-03T06:58:33.161Z,17.43
2017-05-03T06:59:45.465Z,17.43
2017-05-03T07:00:58.251Z,17.35
2017-05-03T07:02:10.557Z,17.32
2017-05-03T07:03:23.335Z,17.33
2017-05-03T07:04:35.634Z,17.38
2017-05-03T07:05:48.420Z,17.33
2017-05-03T07:07:01.202Z,17.3
2017-05-03T07:08:13.500Z,17.28
2017-05-03T07:09:25.799Z,17.33
2017-05-03T07:10:38.575Z,17.35
2017-05-03T07:11:51.353Z,17.27
2017-05-03T07:13:04.132Z,17.33
2017-05-03T07:14:16.915Z,17.36
2017-05-03T07:15:29.699Z,17.3
2017-05-03T07:16:42.783Z,17.36
2017-05-03T07:17:55.602Z,17.3
2017-05-03T07:19:07.911Z,17.32
2017-05-03T07:20:20.693Z,17.32
2017-05-03T07:21:32.516Z,17.3
2017-05-03T07:22:45.327Z,17.32
2017-05-03T07:23:58.108Z,17.33
2017-05-03T07:25:10.887Z,17.36
2017-05-03T07:26:23.184Z,17.32
2017-05-03T07:27:35.969Z,17.39
2017-05-03T07:28:48.273Z,17.42
2017-05-03T07:30:01.062Z,17.4
2017-05-03T07:31:13.357Z,17.45
2017-05-03T07:32:24.693Z,17.47
2017-05-03T07:33:37.778Z,17.43
2017-05-03T07:34:50.560Z,17.43
2017-05-03T07:36:03.342Z,17.43
2017-05-03T07:37:15.637Z,17.45
2017-05-03T07:38:28.719Z,17.43
2017-05-03T07:39:41.502Z,17.42
2017-05-03T07:40:53.799Z,17.46
2017-05-03T07:42:06.095Z,17.38
2017-05-03T07:43:18.875Z,17.51
2017-05-03T07:44:31.658Z,17.39
2017-05-03T07:45:44.441Z,17.39
2017-05-03T07:46:57.221Z,17.36
2017-05-03T07:48:09.524Z,17.42
2017-05-03T07:49:22.300Z,17.36
2017-05-03T07:50:34.603Z,17.36
2017-05-03T07:51:47.425Z,17.36
2017-05-03T07:53:00.213Z,17.33
2017-05-03T07:54:12.509Z,17.35
2017-05-03T07:55:24.628Z,17.15
2017-05-03T07:56:37.416Z,17.17
2017-05-03T07:57:50.193Z,17.18
2017-05-03T07:59:02.498Z,17.15
2017-05-03T08:00:15.578Z,17.18
2017-05-03T08:01:28.359Z,17.1
2017-05-03T08:02:40.657Z,17.15
2017-05-03T08:03:53.439Z,17.21
2017-05-03T08:05:05.735Z,17.3
2017-05-03T08:06:18.040Z,17.25
2017-05-03T08:07:30.823Z,17.33
2017-05-03T08:08:43.128Z,17.3
2017-05-03T08:09:55.930Z,17.35
2017-05-03T08:11:07.748Z,17.36
2017-05-03T08:12:20.530Z,17.35
2017-05-03T08:13:32.837Z,17.33
2017-05-03T08:14:45.137Z,17.27
2017-05-03T08:15:57.926Z,17.33
2017-05-03T08:17:11.010Z,17.33
2017-05-03T08:18:23.317Z,17.38
2017-05-03T08:19:36.101Z,17.32
2017-05-03T08:20:48.884Z,17.38
2017-05-03T08:22:01.971Z,17.39
2017-05-03T08:23:14.277Z,17.33
2017-05-03T08:24:25.651Z,17.39
2017-05-03T08:25:38.493Z,17.36
2017-05-03T08:26:51.278Z,17.3
2017-05-03T08:28:04.063Z,17.27
2017-05-03T08:29:16.376Z,17.24
2017-05-03T08:30:28.689Z,17.28
2017-05-03T08:31:41.004Z,17.2
2017-05-03T08:32:53.796Z,17.2
2017-05-03T08:34:06.597Z,17.17
2017-05-03T08:35:17.945Z,17.15
2017-05-03T08:36:30.757Z,17.15
2017-05-03T08:37:43.557Z,17.24
2017-05-03T08:38:56.350Z,17.21
2017-05-03T08:40:09.146Z,17.25
2017-05-03T08:41:21.464Z,17.18
2017-05-03T08:42:34.260Z,17.24
2017-05-03T08:43:46.820Z,17.22
2017-05-03T08:44:59.129Z,17.15
2017-05-03T08:46:10.474Z,17.21
2017-05-03T08:47:23.269Z,17.18
2017-05-03T08:48:35.579Z,17.28
2017-05-03T08:49:48.676Z,17.25
2017-05-03T08:51:01.476Z,17.35
2017-05-03T08:52:14.275Z,17.33
2017-05-03T08:53:26.589Z,17.3
2017-05-03T08:54:38.907Z,17.32
2017-05-03T08:55:51.701Z,17.3
2017-05-03T08:57:04.493Z,17.39
2017-05-03T08:58:16.808Z,17.42
2017-05-03T08:59:29.603Z,17.42
2017-05-03T09:00:41.913Z,17.38
2017-05-03T09:01:54.706Z,17.38
2017-05-03T09:03:07.501Z,17.33
2017-05-03T09:04:20.305Z,17.35
2017-05-03T09:05:33.341Z,17.38
2017-05-03T09:06:46.124Z,17.4
2017-05-03T09:07:58.426Z,17.47
2017-05-03T09:09:10.252Z,17.45
2017-05-03T09:10:23.037Z,17.43
2017-05-03T09:11:35.350Z,17.47
2017-05-03T09:12:48.141Z,17.49
2017-05-03T09:14:00.928Z,17.46
2017-05-03T09:15:13.710Z,17.53
2017-05-03T09:16:26.489Z,17.54
2017-05-03T09:17:39.309Z,17.57
2017-05-03T09:18:51.614Z,17.62
2017-05-03T09:20:04.394Z,17.65
2017-05-03T09:21:17.183Z,17.57
2017-05-03T09:22:29.492Z,17.66
2017-05-03T09:23:42.284Z,17.71
2017-05-03T09:24:55.076Z,17.74
2017-05-03T09:26:07.866Z,17.57
2017-05-03T09:27:20.659Z,17.53
2017-05-03T09:28:33.447Z,17.53
2017-05-03T09:29:45.754Z,17.43
2017-05-03T09:30:58.540Z,17.46
2017-05-03T09:32:11.329Z,17.45
2017-05-03T09:33:24.125Z,17.39
2017-05-03T09:34:36.428Z,17.39
2017-05-03T09:35:49.214Z,17.38
2017-05-03T09:37:01.526Z,17.33
2017-05-03T09:38:13.351Z,17.46
2017-05-03T09:39:26.144Z,17.53
2017-05-03T09:40:38.444Z,17.54
2017-05-03T09:41:51.239Z,17.43
2017-05-03T09:43:04.033Z,17.46
2017-05-03T09:44:16.641Z,17.49
2017-05-03T09:45:29.430Z,17.47
2017-05-03T09:46:42.215Z,17.53
2017-05-03T09:47:54.524Z,17.47
2017-05-03T09:49:07.324Z,17.49
2017-05-03T09:50:20.114Z,17.53
2017-05-03T09:51:31.939Z,17.55
2017-05-03T09:52:43.286Z,17.46
2017-05-03T09:53:56.072Z,17.47
2017-05-03T09:55:08.856Z,17.46
2017-05-03T09:56:21.157Z,17.49
2017-05-03T09:57:33.938Z,17.46
2017-05-03T09:58:46.239Z,17.43
2017-05-03T09:59:59.027Z,17.39
2017-05-03T10:01:11.825Z,17.46
2017-05-03T10:02:24.124Z,17.49
2017-05-03T10:03:35.942Z,17.53
2017-05-03T10:04:48.731Z,17.54
2017-05-03T10:06:01.772Z,17.55
2017-05-03T10:07:14.553Z,17.54
2017-05-03T10:08:27.332Z,17.6
2017-05-03T10:09:40.157Z,17.58
2017-05-03T10:10:52.456Z,17.77
2017-05-03T10:12:05.237Z,17.57
2017-05-03T10:13:18.014Z,17.73
2017-05-03T10:14:30.802Z,17.47
2017-05-03T10:15:43.100Z,17.49
2017-05-03T10:16:56.180Z,17.47
2017-05-03T10:18:08.996Z,17.55
2017-05-03T10:19:21.295Z,17.58
2017-05-03T10:20:33.594Z,17.57
2017-05-03T10:21:45.889Z,17.63
2017-05-03T10:22:58.921Z,17.51
2017-05-03T10:24:11.715Z,17.62
2017-05-03T10:25:24.014Z,17.54
2017-05-03T10:26:36.308Z,17.55
2017-05-03T10:27:48.125Z,17.65
2017-05-03T10:29:00.421Z,17.71
2017-05-03T10:30:12.258Z,17.74
2017-05-03T10:31:24.559Z,17.86
2017-05-03T10:32:37.342Z,17.86
2017-05-03T10:33:49.164Z,17.99
2017-05-03T10:35:01.946Z,18.07
2017-05-03T10:36:14.243Z,18.1
2017-05-03T10:37:27.020Z,18.02
2017-05-03T10:38:39.621Z,17.91
2017-05-03T10:39:51.929Z,17.71
2017-05-03T10:41:04.710Z,17.71
2017-05-03T10:42:17.488Z,17.6
2017-05-03T10:43:29.794Z,17.57
2017-05-03T10:44:42.570Z,17.55
2017-05-03T10:45:55.344Z,17.57
2017-05-03T10:47:08.122Z,17.53
2017-05-03T10:48:19.936Z,17.51
2017-05-03T10:49:32.234Z,17.42
2017-05-03T10:50:45.010Z,17.46
2017-05-03T10:51:57.790Z,17.45
2017-05-03T10:53:10.567Z,17.43
2017-05-03T10:54:23.347Z,17.46
2017-05-03T10:55:35.163Z,17.51
2017-05-03T10:56:47.939Z,17.49
2017-05-03T10:58:00.718Z,17.54
2017-05-03T10:59:13.500Z,17.53
2017-05-03T11:00:26.525Z,17.57
2017-05-03T11:01:39.309Z,17.55
2017-05-03T11:02:52.091Z,17.7
2017-05-03T11:04:04.390Z,17.65
2017-05-03T11:05:16.204Z,17.57
2017-05-03T11:06:28.979Z,17.71
2017-05-03T11:07:41.280Z,17.71
2017-05-03T11:08:54.090Z,17.73
2017-05-03T11:10:06.869Z,17.77
2017-05-03T11:11:19.170Z,17.8
2017-05-03T11:12:31.949Z,17.83
2017-05-03T11:13:44.248Z,17.84
2017-05-03T11:14:56.555Z,17.95
2017-05-03T11:16:09.333Z,17.86
2017-05-03T11:17:22.113Z,17.91
2017-05-03T11:18:34.410Z,18.01
2017-05-03T11:19:47.191Z,18.01
2017-05-03T11:20:59.978Z,18.09
2017-05-03T11:22:12.756Z,18.14
2017-05-03T11:23:25.054Z,18.19
2017-05-03T11:24:37.359Z,18.17
2017-05-03T11:25:50.135Z,18.35
2017-05-03T11:27:02.911Z,18.35
2017-05-03T11:28:15.207Z,18.36
2017-05-03T11:29:27.508Z,18.51
2017-05-03T11:30:39.807Z,18.51
2017-05-03T11:31:52.582Z,18.49
2017-05-03T11:33:05.357Z,18.64
2017-05-03T11:34:17.173Z,18.64
2017-05-03T11:35:29.950Z,18.64
2017-05-03T11:36:41.766Z,18.64
2017-05-03T11:37:54.547Z,18.68
2017-05-03T11:39:07.329Z,18.66
2017-05-03T11:40:19.626Z,18.83
2017-05-03T11:41:32.403Z,18.84
2017-05-03T11:42:44.221Z,18.84
2017-05-03T11:43:56.525Z,18.84
2017-05-03T11:45:08.824Z,18.93
2017-05-03T11:46:21.622Z,18.96
2017-05-03T11:47:34.396Z,18.99
2017-05-03T11:48:47.173Z,19.02
2017-05-03T11:49:59.719Z,19.17
2017-05-03T11:51:12.498Z,19.1
2017-05-03T11:52:24.313Z,19.16
2017-05-03T11:53:37.104Z,19.24
2017-05-03T11:54:50.132Z,19.16
2017-05-03T11:56:02.907Z,19.34
2017-05-03T11:57:15.708Z,19.38
2017-05-03T11:58:28.014Z,19.47
2017-05-03T11:59:40.797Z,19.62
2017-05-03T12:00:53.578Z,19.8
2017-05-03T12:02:06.356Z,19.82
2017-05-03T12:03:19.133Z,20.08
2017-05-03T12:04:31.913Z,20.15
2017-05-03T12:05:44.945Z,20.23
2017-05-03T12:06:57.253Z,20.37
2017-05-03T12:08:10.051Z,20.4
2017-05-03T12:09:22.835Z,20.58
2017-05-03T12:10:35.142Z,20.54
2017-05-03T12:11:48.183Z,20.22
2017-05-03T12:13:00.499Z,20.07
2017-05-03T12:14:12.808Z,19.98
2017-05-03T12:15:25.108Z,20.05
2017-05-03T12:16:38.144Z,20.08
2017-05-03T12:17:50.929Z,20.3
2017-05-03T12:19:02.752Z,20.44
2017-05-03T12:20:15.550Z,20.5
2017-05-03T12:21:28.340Z,20.66
2017-05-03T12:22:40.645Z,20.83
2017-05-03T12:23:53.454Z,20.85
2017-05-03T12:25:06.251Z,21.11
2017-05-03T12:26:18.074Z,21.22
2017-05-03T12:27:31.120Z,21.3
2017-05-03T12:28:43.435Z,21.38
2017-05-03T12:29:56.233Z,21.66
2017-05-03T12:31:09.026Z,21.64
2017-05-03T12:32:21.831Z,21.83
2017-05-03T12:33:34.874Z,21.85
2017-05-03T12:34:47.666Z,21.82
2017-05-03T12:36:00.457Z,21.74
2017-05-03T12:37:13.254Z,21.71
2017-05-03T12:38:26.628Z,21.83
2017-05-03T12:39:38.938Z,21.75
2017-05-03T12:40:51.732Z,21.96
2017-05-03T12:42:04.526Z,22.15
2017-05-03T12:43:17.325Z,22.3
2017-05-03T12:44:29.437Z,22.45
2017-05-03T12:45:42.230Z,22.52
2017-05-03T12:46:55.028Z,22.64
2017-05-03T12:48:07.339Z,22.74
2017-05-03T12:49:20.135Z,22.84
2017-05-03T12:50:32.939Z,23.03
2017-05-03T12:51:45.747Z,23.11
2017-05-03T12:52:58.063Z,23.15
2017-05-03T12:54:10.369Z,23.25
2017-05-03T12:55:23.157Z,23.14
2017-05-03T12:56:35.946Z,22.85
2017-05-03T12:57:48.889Z,22.6
2017-05-03T12:59:01.202Z,22.61
2017-05-03T13:00:13.514Z,22.64
2017-05-03T13:01:25.820Z,22.86
2017-05-03T13:02:38.934Z,22.97
2017-05-03T13:03:51.722Z,23.03
2017-05-03T13:05:04.034Z,23.11
2017-05-03T13:06:16.334Z,23.19
2017-05-03T13:07:29.123Z,23.39
2017-05-03T13:08:41.429Z,23.52
2017-05-03T13:09:53.736Z,23.62
2017-05-03T13:11:05.565Z,23.75
2017-05-03T13:12:17.866Z,23.79
2017-05-03T13:13:30.659Z,23.72
2017-05-03T13:14:43.441Z,23.71
2017-05-03T13:15:55.756Z,23.75
2017-05-03T13:17:08.060Z,23.72
2017-05-03T13:18:19.886Z,23.72
2017-05-03T13:20:59.845Z,23.94
2017-05-03T13:22:12.150Z,23.96
2017-05-03T13:23:24.455Z,24
2017-05-03T13:24:37.499Z,24.02
2017-05-03T13:25:50.296Z,24.08
2017-05-03T13:27:03.096Z,24.19
2017-05-03T13:28:15.892Z,24.34
2017-05-03T13:29:28.198Z,24.34
2017-05-03T13:30:40.505Z,24.36
2017-05-03T13:31:53.291Z,24.49
2017-05-03T13:33:05.129Z,24.53
2017-05-03T13:34:17.444Z,24.45
2017-05-03T13:35:30.545Z,24.59
2017-05-03T13:36:43.336Z,24.55
2017-05-03T13:37:56.122Z,24.46
2017-05-03T13:39:08.911Z,24.23
2017-05-03T13:40:21.218Z,23.86
2017-05-03T13:41:34.305Z,23.72
2017-05-03T13:42:47.091Z,23.82
2017-05-03T13:43:59.401Z,23.93
2017-05-03T13:45:11.706Z,24.06
2017-05-03T13:46:24.259Z,24.02
2017-05-03T13:47:37.056Z,24.05
2017-05-03T13:48:49.848Z,24.19
2017-05-03T13:50:02.635Z,24.26
2017-05-03T13:51:15.421Z,24.31
2017-05-03T13:52:28.458Z,24.46
2017-05-03T13:53:40.766Z,24.44
2017-05-03T13:54:53.554Z,24.29
2017-05-03T13:56:06.342Z,24.36
2017-05-03T13:57:19.432Z,24.31
2017-05-03T13:58:32.216Z,24.31
2017-05-03T13:59:45.004Z,24.27
2017-05-03T14:00:57.791Z,24.27
2017-05-03T14:02:09.616Z,24.37
2017-05-03T14:03:22.402Z,24.36
2017-05-03T14:04:34.706Z,24.36
2017-05-03T14:05:47.488Z,24.42
2017-05-03T14:07:00.275Z,24.41
2017-05-03T14:08:13.316Z,24.44
2017-05-03T14:09:25.142Z,24.34
2017-05-03T14:10:37.937Z,24.26
2017-05-03T14:11:50.931Z,24.27
2017-05-03T14:13:03.724Z,24.27
2017-05-03T14:14:16.772Z,24.27
2017-05-03T14:15:29.083Z,24.33
2017-05-03T14:16:41.879Z,24.53
2017-05-03T14:17:54.664Z,24.67
2017-05-03T14:19:07.230Z,24.74
2017-05-03T14:20:19.554Z,24.82
2017-05-03T14:21:31.863Z,25.04
2017-05-03T14:22:44.669Z,24.92
2017-05-03T14:23:57.467Z,24.94
2017-05-03T14:25:10.519Z,24.98
2017-05-03T14:26:22.835Z,25.07
2017-05-03T14:27:35.638Z,24.98
2017-05-03T14:28:47.954Z,25.14
2017-05-03T14:30:00.754Z,25.11
2017-05-03T14:31:13.555Z,25.11
2017-05-03T14:32:25.877Z,25.14
2017-05-03T14:33:38.688Z,25.3
2017-05-03T14:34:51.518Z,25.38
2017-05-03T14:36:04.321Z,25.38
2017-05-03T14:37:16.640Z,25.51
2017-05-03T14:38:28.984Z,25.49
2017-05-03T14:39:41.303Z,25.45
2017-05-03T14:40:53.625Z,25.49
2017-05-03T14:42:05.947Z,25.44
2017-05-03T14:43:18.265Z,25.48
2017-05-03T14:44:31.064Z,25.46
2017-05-03T14:45:43.864Z,25.56
2017-05-03T14:46:56.923Z,25.53
2017-05-03T14:48:09.730Z,25.54
2017-05-03T14:49:22.061Z,25.54
2017-05-03T14:50:34.376Z,25.48
2017-05-03T14:51:46.693Z,25.48
2017-05-03T14:52:58.529Z,25.34
2017-05-03T14:54:11.329Z,25.36
2017-05-03T14:55:24.143Z,25.08
2017-05-03T14:56:36.944Z,24.99
2017-05-03T14:58:03.333Z,24.8
2017-05-03T14:59:15.653Z,24.52
2017-05-03T15:00:27.965Z,24.61
2017-05-03T15:01:40.279Z,24.56
2017-05-03T15:02:51.882Z,24.6
2017-05-03T15:04:04.685Z,24.63
2017-05-03T15:05:17.021Z,24.63
2017-05-03T15:06:29.821Z,24.52
2017-05-03T15:07:42.142Z,24.21
2017-05-03T15:08:54.459Z,24.14
2017-05-03T15:10:07.259Z,24.26
2017-05-03T15:11:19.574Z,24.23
2017-05-03T15:12:32.371Z,24.29
2017-05-03T15:13:44.358Z,24.11
2017-05-03T15:14:56.687Z,24.18
2017-05-03T15:16:09.487Z,24.21
2017-05-03T15:17:21.801Z,24.29
2017-05-03T15:18:34.131Z,24.15
2017-05-03T15:19:46.938Z,24.19
2017-05-03T15:20:59.253Z,24.27
2017-05-03T15:22:12.051Z,24.29
2017-05-03T15:23:24.367Z,24.3
2017-05-03T15:24:37.164Z,24.34
2017-05-03T15:25:49.480Z,24.42
2017-05-03T15:27:02.266Z,24.31
2017-05-03T15:28:14.569Z,24.23
2017-05-03T15:29:26.886Z,24.02
2017-05-03T15:30:39.688Z,24.02
2017-05-03T15:31:52.481Z,23.97
2017-05-03T15:33:04.793Z,24.19
2017-05-03T15:34:17.123Z,24.15
2017-05-03T15:35:29.921Z,24.15
2017-05-03T15:36:42.718Z,24.23
2017-05-03T15:37:55.025Z,24.23
2017-05-03T15:39:07.818Z,24.19